Macondo — 3EYB9 — position and weather

sailwx.info

Track history (hours):
 
Tides and Currents Weather Stations Pressure Air Temp Water Temp Dewpoint Dewpoint Depression Visibility Wind Speed Wind Dir Waves Ship Positions

Macondo

Last reported at 2014-Mar-08 15:18 UTC. Time now 2014-Aug-02 00:30 UTC.
Position N 19°28' W 095°51'.
Warning: this ship's position is months out of date.

Length 120 m; draft 5 m.

Type: Ship. MMSI: 371293000.

Date/timePositionNaut miles runAvg speedWind from/ knotsBaromVisibWave heightAir tempDewpointWater temp
2014-Mar-08 15:18N 19°28' W 095°51'811.1
2014-Mar-08 14:33N 19°21' W 095°56'1110.6
2014-Mar-08 13:33N 19°12' W 096°02'6 5.9
2014-Mar-08 12:34N 19°13' W 096°08'0 0.0
2014-Mar-08 11:33N 19°13' W 096°08'0 0.0
2014-Mar-08 10:34N 19°13' W 096°08'0 0.0
2014-Mar-08 09:34N 19°13' W 096°08'0 0.0
2014-Mar-08 08:34N 19°13' W 096°08'0 0.0
2014-Mar-08 07:33N 19°13' W 096°08'0 0.0
2014-Mar-08 06:34N 19°13' W 096°08'0 0.0
2014-Mar-08 05:34N 19°13' W 096°08'0 0.0
2014-Mar-08 04:34N 19°13' W 096°08'0 0.0
2014-Mar-08 03:34N 19°13' W 096°08'0 0.0
2014-Mar-08 02:33N 19°13' W 096°08'0 0.0
2014-Mar-08 01:34N 19°13' W 096°08'0 0.0
2014-Mar-08 00:34N 19°13' W 096°08'0 0.0
2014-Mar-07 23:34N 19°13' W 096°08'0 0.0
2014-Mar-07 22:33N 19°13' W 096°08'0 0.0
2014-Mar-07 21:34N 19°13' W 096°08'0 0.0
2014-Mar-07 20:34N 19°13' W 096°08'0 0.0
2014-Mar-07 19:34N 19°13' W 096°08'0 0.0
2014-Mar-07 18:33N 19°13' W 096°08'0 0.0
2014-Mar-07 16:33N 19°13' W 096°08'0 0.0
2014-Mar-07 15:33N 19°13' W 096°08'0 0.0
2014-Mar-07 14:33N 19°13' W 096°08'0 0.0
2014-Mar-07 13:33N 19°13' W 096°08'0 0.0
2014-Mar-07 11:33N 19°13' W 096°08'0 0.0
2014-Mar-07 10:33N 19°13' W 096°08'0 0.0
2014-Mar-07 09:33N 19°13' W 096°08'0 0.4
2014-Mar-07 08:33N 19°12' W 096°08'8 7.9
2014-Mar-07 07:33N 19°12' W 095°60'  
2014-Feb-28 20:14N 27°40' W 082°36'710.2
2014-Feb-28 19:32N 27°46' W 082°31'9 9.2
2014-Feb-28 18:33N 27°54' W 082°26'1 1.1
2014-Feb-28 17:33N 27°55' W 082°25'0 0.0
2014-Feb-28 16:33N 27°55' W 082°25'0 0.0
2014-Feb-28 15:33N 27°55' W 082°25'0 0.0
2014-Feb-28 14:33N 27°55' W 082°25'0 0.0
2014-Feb-28 13:33N 27°55' W 082°25'0 0.0
2014-Feb-28 12:33N 27°55' W 082°25'0 0.0
2014-Feb-28 11:33N 27°55' W 082°25'0 0.0
2014-Feb-28 10:33N 27°55' W 082°25'0 0.0
2014-Feb-28 09:33N 27°55' W 082°25'0 0.0
2014-Feb-28 08:33N 27°55' W 082°25'0 0.0
2014-Feb-28 07:33N 27°55' W 082°25'0 0.0
2014-Feb-28 06:33N 27°55' W 082°25'0 0.0
2014-Feb-28 05:33N 27°55' W 082°25'0 0.0
2014-Feb-28 04:33N 27°55' W 082°25'0 0.0
2014-Feb-28 03:33N 27°55' W 082°25'0 0.0
2014-Feb-28 02:33N 27°55' W 082°25'0 0.0
2014-Feb-28 01:33N 27°55' W 082°25'0 0.0
2014-Feb-28 00:33N 27°55' W 082°25'0 0.0
2014-Feb-27 23:33N 27°55' W 082°25'0 0.0
2014-Feb-27 22:33N 27°55' W 082°25'0 0.0
2014-Feb-27 21:33N 27°55' W 082°25'1 0.5
2014-Feb-27 19:33N 27°54' W 082°26'1010.1
2014-Feb-27 18:33N 27°45' W 082°31'1211.5
2014-Feb-27 17:33N 27°37' W 082°40'1211.9
2014-Feb-27 16:33N 27°36' W 082°54'9 9.1
2014-Feb-27 15:33N 27°31' W 083°02'  
Track history (hours):
 
Tides and Currents Weather Stations Pressure Air Temp Water Temp Dewpoint Dewpoint Depression Visibility Wind Speed Wind Dir Waves Ship Positions

Macondo

Last reported at 2014-Mar-08 15:18 UTC. Time now 2014-Aug-02 00:30 UTC.
Position N 19°28' W 095°51'.
Warning: this ship's position is months out of date.

Length 120 m; draft 5 m.

Type: Ship. MMSI: 371293000.

Date/timePositionNaut miles runAvg speedWind from/ knotsBaromVisibWave heightAir tempDewpointWater temp
2014-Mar-08 15:18N 19°28' W 095°51'811.1
2014-Mar-08 14:33N 19°21' W 095°56'1110.6
2014-Mar-08 13:33N 19°12' W 096°02'6 5.9
2014-Mar-08 12:34N 19°13' W 096°08'0 0.0
2014-Mar-08 11:33N 19°13' W 096°08'0 0.0
2014-Mar-08 10:34N 19°13' W 096°08'0 0.0
2014-Mar-08 09:34N 19°13' W 096°08'0 0.0
2014-Mar-08 08:34N 19°13' W 096°08'0 0.0
2014-Mar-08 07:33N 19°13' W 096°08'0 0.0
2014-Mar-08 06:34N 19°13' W 096°08'0 0.0
2014-Mar-08 05:34N 19°13' W 096°08'0 0.0
2014-Mar-08 04:34N 19°13' W 096°08'0 0.0
2014-Mar-08 03:34N 19°13' W 096°08'0 0.0
2014-Mar-08 02:33N 19°13' W 096°08'0 0.0
2014-Mar-08 01:34N 19°13' W 096°08'0 0.0
2014-Mar-08 00:34N 19°13' W 096°08'0 0.0
2014-Mar-07 23:34N 19°13' W 096°08'0 0.0
2014-Mar-07 22:33N 19°13' W 096°08'0 0.0
2014-Mar-07 21:34N 19°13' W 096°08'0 0.0
2014-Mar-07 20:34N 19°13' W 096°08'0 0.0
2014-Mar-07 19:34N 19°13' W 096°08'0 0.0
2014-Mar-07 18:33N 19°13' W 096°08'0 0.0
2014-Mar-07 16:33N 19°13' W 096°08'0 0.0
2014-Mar-07 15:33N 19°13' W 096°08'0 0.0
2014-Mar-07 14:33N 19°13' W 096°08'0 0.0
2014-Mar-07 13:33N 19°13' W 096°08'0 0.0
2014-Mar-07 11:33N 19°13' W 096°08'0 0.0
2014-Mar-07 10:33N 19°13' W 096°08'0 0.0
2014-Mar-07 09:33N 19°13' W 096°08'0 0.4
2014-Mar-07 08:33N 19°12' W 096°08'8 7.9
2014-Mar-07 07:33N 19°12' W 095°60'  
2014-Feb-28 20:14N 27°40' W 082°36'710.2
2014-Feb-28 19:32N 27°46' W 082°31'9 9.2
2014-Feb-28 18:33N 27°54' W 082°26'1 1.1
2014-Feb-28 17:33N 27°55' W 082°25'0 0.0
2014-Feb-28 16:33N 27°55' W 082°25'0 0.0
2014-Feb-28 15:33N 27°55' W 082°25'0 0.0
2014-Feb-28 14:33N 27°55' W 082°25'0 0.0
2014-Feb-28 13:33N 27°55' W 082°25'0 0.0
2014-Feb-28 12:33N 27°55' W 082°25'0 0.0
2014-Feb-28 11:33N 27°55' W 082°25'0 0.0
2014-Feb-28 10:33N 27°55' W 082°25'0 0.0
2014-Feb-28 09:33N 27°55' W 082°25'0 0.0
2014-Feb-28 08:33N 27°55' W 082°25'0 0.0
2014-Feb-28 07:33N 27°55' W 082°25'0 0.0
2014-Feb-28 06:33N 27°55' W 082°25'0 0.0
2014-Feb-28 05:33N 27°55' W 082°25'0 0.0
2014-Feb-28 04:33N 27°55' W 082°25'0 0.0
2014-Feb-28 03:33N 27°55' W 082°25'0 0.0
2014-Feb-28 02:33N 27°55' W 082°25'0 0.0
2014-Feb-28 01:33N 27°55' W 082°25'0 0.0
2014-Feb-28 00:33N 27°55' W 082°25'0 0.0
2014-Feb-27 23:33N 27°55' W 082°25'0 0.0
2014-Feb-27 22:33N 27°55' W 082°25'0 0.0
2014-Feb-27 21:33N 27°55' W 082°25'1 0.5
2014-Feb-27 19:33N 27°54' W 082°26'1010.1
2014-Feb-27 18:33N 27°45' W 082°31'1211.5
2014-Feb-27 17:33N 27°37' W 082°40'1211.9
2014-Feb-27 16:33N 27°36' W 082°54'9 9.1
2014-Feb-27 15:33N 27°31' W 083°02'  

Dump ship's entire track history